Time;durP1;ratioP1;P1;durP2;ratioP2;P2;SDS_P1;SDS_P2;PMS_P1;PMS_P2;Temp;Humidity;BMP_temperature;BMP_pressure;BME280_temperature;BME280_humidity;BME280_pressure;Samples;Min_cycle;Max_cycle;Signal;HPM_P1;HPM_P2
2021/10/09 00:02:21;;;;;;;11.53;6.90;;;8.60;99.90;;;;;;5036078;28;20174;-81
2021/10/09 00:04:47;;;;;;;17.40;6.17;;;8.70;99.90;;;;;;5033985;28;20676;-80
2021/10/09 00:07:12;;;;;;;13.87;6.87;;;8.90;99.90;;;;;;5018301;28;20201;-80
2021/10/09 00:09:38;;;;;;;7.33;5.23;;;9.10;99.90;;;;;;5034561;28;20169;-79
2021/10/09 00:12:04;;;;;;;9.30;6.57;;;9.10;99.90;;;;;;5034172;28;20179;-79
2021/10/09 00:14:33;;;;;;;13.70;8.17;;;9.00;99.90;;;;;;5035564;28;20177;-79
2021/10/09 00:16:58;;;;;;;12.85;6.28;;;8.90;99.90;;;;;;5035688;28;20850;-80
2021/10/09 00:19:24;;;;;;;13.23;7.30;;;8.90;99.90;;;;;;5035827;28;20189;-80
2021/10/09 00:21:49;;;;;;;11.57;7.70;;;8.80;99.90;;;;;;5035600;28;20169;-80
2021/10/09 00:24:17;;;;;;;12.60;7.70;;;8.70;99.90;;;;;;5035410;28;20197;-80
2021/10/09 00:26:44;;;;;;;19.67;8.55;;;8.80;99.90;;;;;;5034112;28;20259;-80
2021/10/09 00:29:10;;;;;;;17.30;7.72;;;8.60;99.90;;;;;;5033840;28;20180;-80
2021/10/09 00:31:36;;;;;;;15.30;7.40;;;8.70;99.90;;;;;;5036080;28;20162;-80
2021/10/09 00:34:02;;;;;;;10.77;7.20;;;8.90;99.90;;;;;;5033652;28;20412;-80
2021/10/09 00:36:28;;;;;;;16.70;6.95;;;8.80;99.90;;;;;;5034319;28;20257;-81
2021/10/09 00:38:54;;;;;;;12.23;7.00;;;8.90;99.90;;;;;;5035603;28;20722;-80
2021/10/09 00:41:20;;;;;;;12.50;6.85;;;8.90;99.90;;;;;;5034157;28;20169;-80
2021/10/09 00:43:45;;;;;;;12.38;7.93;;;8.90;99.90;;;;;;5033757;28;20177;-81
2021/10/09 00:46:12;;;;;;;10.07;6.53;;;9.00;99.90;;;;;;5033973;28;20200;-80
2021/10/09 00:48:37;;;;;;;14.50;6.80;;;8.90;99.90;;;;;;5033796;28;20588;-79
2021/10/09 00:51:04;;;;;;;15.93;8.07;;;8.80;99.90;;;;;;5033987;28;20186;-80
2021/10/09 00:53:33;;;;;;;10.55;7.55;;;9.00;99.90;;;;;;5016914;28;20201;-78
2021/10/09 00:56:01;;;;;;;17.25;7.70;;;9.00;99.90;;;;;;5033173;28;20189;-79
2021/10/09 00:58:28;;;;;;;14.85;7.13;;;8.70;99.90;;;;;;5034066;28;20177;-80
2021/10/09 01:00:55;;;;;;;11.98;6.60;;;8.60;99.90;;;;;;5035072;28;20181;-79
2021/10/09 01:03:20;;;;;;;10.23;5.97;;;8.70;99.90;;;;;;5034713;28;20215;-80
2021/10/09 01:05:46;;;;;;;9.30;6.67;;;8.60;99.90;;;;;;5034875;28;20212;-80
2021/10/09 01:08:12;;;;;;;16.57;7.60;;;8.60;99.90;;;;;;5033621;28;20172;-80
2021/10/09 01:10:38;;;;;;;9.80;6.63;;;8.60;99.90;;;;;;5033581;28;20204;-80
2021/10/09 01:13:04;;;;;;;13.13;7.55;;;8.80;99.90;;;;;;5033393;28;20494;-81
2021/10/09 01:15:34;;;;;;;11.68;7.05;;;8.90;99.90;;;;;;5033027;28;20181;-79
2021/10/09 01:18:13;;;;;;;13.63;7.50;;;8.70;99.90;;;;;;5033775;28;20235;-80
2021/10/09 01:20:54;;;;;;;10.30;6.57;;;8.80;99.90;;;;;;5034213;28;20173;-80
2021/10/09 01:23:21;;;;;;;14.00;8.00;;;8.70;99.90;;;;;;5032859;28;20180;-81
2021/10/09 01:25:47;;;;;;;16.65;6.95;;;8.80;99.90;;;;;;5035565;28;20225;-80
2021/10/09 01:28:13;;;;;;;11.90;7.28;;;8.40;99.90;;;;;;5034818;28;20240;-80
2021/10/09 01:30:39;;;;;;;9.57;6.38;;;8.30;99.90;;;;;;5034548;28;20575;-80
2021/10/09 01:33:05;;;;;;;16.80;7.57;;;8.40;99.90;;;;;;5033969;28;20165;-80
2021/10/09 01:35:31;;;;;;;10.27;6.63;;;8.10;99.90;;;;;;5032514;28;20173;-79
2021/10/09 01:37:56;;;;;;;17.50;7.53;;;7.80;99.90;;;;;;5033254;28;20255;-79
2021/10/09 01:40:22;;;;;;;15.23;8.00;;;8.10;99.90;;;;;;5033834;28;20672;-79
2021/10/09 01:42:48;;;;;;;14.67;7.43;;;8.20;99.90;;;;;;5033068;28;20657;-80
2021/10/09 01:45:14;;;;;;;12.40;6.93;;;8.20;99.90;;;;;;5034307;28;20210;-80
2021/10/09 01:47:40;;;;;;;15.43;6.90;;;8.40;99.90;;;;;;5016784;28;20176;-80
2021/10/09 01:50:07;;;;;;;16.77;7.25;;;8.40;99.90;;;;;;5033754;28;20173;-80
2021/10/09 01:52:32;;;;;;;27.00;8.90;;;8.30;99.90;;;;;;5035053;28;20495;-80
2021/10/09 01:54:58;;;;;;;11.23;7.13;;;8.50;99.90;;;;;;5034521;28;20204;-80
2021/10/09 01:57:23;;;;;;;9.80;7.47;;;8.50;99.90;;;;;;5034651;28;20665;-80
2021/10/09 01:59:49;;;;;;;16.47;8.00;;;8.30;99.90;;;;;;5035092;28;20174;-80
2021/10/09 02:02:14;;;;;;;17.27;7.50;;;8.30;99.90;;;;;;5033573;28;20173;-80
2021/10/09 02:04:40;;;;;;;10.80;7.00;;;8.10;99.90;;;;;;5034015;28;20217;-80
2021/10/09 02:07:07;;;;;;;18.40;7.90;;;7.70;99.90;;;;;;5032886;28;20205;-80
2021/10/09 02:09:33;;;;;;;19.00;5.90;;;7.70;99.90;;;;;;5034796;28;20173;-80
2021/10/09 02:11:59;;;;;;;15.20;7.97;;;7.80;99.90;;;;;;5038021;28;20637;-80
2021/10/09 02:14:39;;;;;;;13.57;8.32;;;7.70;99.90;;;;;;5037035;28;20200;-79
2021/10/09 02:17:25;;;;;;;13.45;7.78;;;7.60;99.90;;;;;;5037761;28;20193;-80
2021/10/09 02:24:13;;;;;;;12.32;6.82;;;7.40;99.90;;;;;;5038989;28;20184;-80
2021/10/09 02:25:39;;;;;;;15.57;7.15;;;7.30;99.90;;;;;;5038347;28;20201;-80
2021/10/09 02:28:05;;;;;;;13.02;7.60;;;7.20;99.90;;;;;;5037125;28;20185;-80
2021/10/09 02:30:30;;;;;;;17.50;8.80;;;7.20;99.90;;;;;;5038431;28;20178;-81
2021/10/09 02:32:56;;;;;;;10.37;7.73;;;7.30;99.90;;;;;;5039140;28;20228;-79
2021/10/09 02:35:22;;;;;;;15.20;7.33;;;7.20;99.90;;;;;;5038427;28;20452;-79
2021/10/09 02:37:48;;;;;;;20.43;8.40;;;7.20;99.90;;;;;;5037204;28;20181;-80
2021/10/09 02:40:13;;;;;;;11.60;7.53;;;7.10;99.90;;;;;;5020990;28;20204;-80
2021/10/09 02:42:39;;;;;;;21.83;8.37;;;7.10;99.90;;;;;;5037471;28;20205;-79
2021/10/09 02:45:05;;;;;;;10.07;6.13;;;7.30;99.90;;;;;;5037469;28;20213;-80
2021/10/09 02:47:30;;;;;;;12.35;7.05;;;7.30;99.90;;;;;;5038948;28;20640;-80
2021/10/09 02:49:56;;;;;;;13.87;7.20;;;7.20;99.90;;;;;;5045950;28;20169;-79
2021/10/09 02:52:21;;;;;;;12.10;7.60;;;7.20;99.90;;;;;;5042577;28;20182;-80
2021/10/09 02:54:47;;;;;;;18.30;8.87;;;7.20;99.90;;;;;;5019143;28;20179;-80
2021/10/09 02:57:12;;;;;;;9.67;6.50;;;7.00;99.90;;;;;;5035726;28;20198;-78
2021/10/09 02:59:38;;;;;;;23.90;8.90;;;6.80;99.90;;;;;;5019345;28;20186;-80
2021/10/09 03:02:04;;;;;;;16.13;7.70;;;6.90;99.90;;;;;;5035777;28;20189;-81
2021/10/09 03:04:29;;;;;;;15.93;7.80;;;6.80;99.90;;;;;;5036876;28;20205;-80
2021/10/09 03:06:55;;;;;;;15.63;8.97;;;6.90;99.90;;;;;;5039983;28;20244;-78
2021/10/09 03:09:20;;;;;;;13.07;7.40;;;7.10;99.90;;;;;;5043034;28;20198;-79
2021/10/09 03:11:46;;;;;;;15.80;7.47;;;7.10;99.90;;;;;;5053106;28;20162;-77
2021/10/09 03:14:11;;;;;;;16.50;8.20;;;7.10;99.90;;;;;;5058742;28;20187;-78
2021/10/09 03:16:37;;;;;;;10.50;6.83;;;7.10;99.90;;;;;;5059038;28;20186;-77
2021/10/09 03:19:02;;;;;;;13.57;7.17;;;7.30;99.90;;;;;;5054136;28;20275;-79
2021/10/09 03:21:28;;;;;;;17.90;9.40;;;7.10;99.90;;;;;;5034705;28;20192;-78
2021/10/09 03:23:53;;;;;;;15.00;7.40;;;7.50;99.90;;;;;;5057044;28;20165;-79
2021/10/09 03:26:19;;;;;;;20.63;7.60;;;7.70;99.90;;;;;;5058463;28;20197;-77
2021/10/09 03:28:45;;;;;;;13.53;7.00;;;7.60;99.90;;;;;;5058664;28;20158;-78
2021/10/09 03:31:10;;;;;;;10.10;6.50;;;7.60;99.90;;;;;;5058037;28;20161;-79
2021/10/09 03:33:36;;;;;;;18.70;8.47;;;7.80;99.90;;;;;;5057662;28;20189;-78
2021/10/09 03:36:02;;;;;;;15.87;8.33;;;7.70;99.90;;;;;;5035668;28;20205;-79
2021/10/09 03:38:27;;;;;;;12.30;6.97;;;7.70;99.90;;;;;;5034690;28;20427;-79
2021/10/09 03:40:59;;;;;;;11.17;7.40;;;7.60;99.90;;;;;;5034927;28;20509;-81
2021/10/09 03:43:26;;;;;;;20.42;7.40;;;7.30;99.90;;;;;;5007812;28;20331;-81
2021/10/09 03:53:35;;;;;;;21.37;9.07;;;7.30;99.90;;;;;;5035762;28;20200;-81
2021/10/09 03:56:01;;;;;;;13.07;6.85;;;7.30;99.90;;;;;;5036760;28;20683;-80
2021/10/09 03:58:27;;;;;;;16.70;8.32;;;7.30;99.90;;;;;;5035980;28;20177;-80
2021/10/09 04:00:53;;;;;;;17.33;7.70;;;7.30;99.90;;;;;;5034522;28;20199;-81
2021/10/09 04:03:18;;;;;;;21.83;9.03;;;7.30;99.90;;;;;;5035297;28;20716;-80
2021/10/09 04:05:44;;;;;;;11.13;7.13;;;7.10;99.90;;;;;;5018212;28;20300;-80
2021/10/09 04:08:09;;;;;;;15.43;7.67;;;7.10;99.90;;;;;;5017995;28;20173;-80
2021/10/09 04:10:36;;;;;;;13.60;7.50;;;7.00;99.90;;;;;;5035638;28;20174;-79
2021/10/09 04:13:02;;;;;;;15.50;8.02;;;6.90;99.90;;;;;;5034266;28;20173;-80
2021/10/09 04:15:29;;;;;;;18.80;7.93;;;7.10;99.90;;;;;;5017766;28;20180;-80
2021/10/09 04:17:54;;;;;;;17.45;9.30;;;7.40;99.90;;;;;;5035379;28;20169;-79
2021/10/09 04:20:20;;;;;;;11.93;7.10;;;7.30;99.90;;;;;;5035568;28;20181;-79
2021/10/09 04:22:45;;;;;;;16.07;7.40;;;6.90;99.90;;;;;;5035342;28;20193;-77
2021/10/09 04:25:11;;;;;;;18.03;8.10;;;7.00;99.90;;;;;;5035857;28;20209;-78
2021/10/09 04:27:37;;;;;;;15.03;7.57;;;6.80;99.90;;;;;;5034694;28;20220;-78
2021/10/09 04:30:06;;;;;;;15.13;7.63;;;7.10;99.90;;;;;;5035138;28;20231;-78
2021/10/09 04:32:32;;;;;;;13.55;8.07;;;6.80;99.90;;;;;;5035833;28;20412;-78
2021/10/09 04:34:57;;;;;;;11.30;7.30;;;6.90;99.90;;;;;;5035145;28;20220;-79
2021/10/09 04:37:23;;;;;;;17.07;7.17;;;7.00;99.90;;;;;;5036570;28;20275;-79
2021/10/09 04:39:48;;;;;;;16.93;7.63;;;7.10;99.90;;;;;;5035348;28;20526;-79
2021/10/09 04:42:14;;;;;;;17.60;8.77;;;7.10;99.90;;;;;;5034777;28;20291;-79
2021/10/09 04:44:40;;;;;;;12.67;8.70;;;7.30;99.90;;;;;;5035249;28;20193;-79
2021/10/09 04:47:05;;;;;;;16.83;10.27;;;7.10;99.90;;;;;;5037646;28;20185;-79
2021/10/09 04:49:31;;;;;;;11.00;7.50;;;7.00;99.90;;;;;;5022163;28;20311;-79
2021/10/09 04:51:57;;;;;;;12.50;8.05;;;7.10;99.90;;;;;;5021055;28;20174;-78
2021/10/09 04:54:23;;;;;;;16.80;7.93;;;6.80;99.90;;;;;;5038221;28;20260;-79
2021/10/09 04:56:48;;;;;;;14.13;7.10;;;6.70;99.90;;;;;;5034142;28;20668;-80
2021/10/09 04:59:17;;;;;;;21.07;9.10;;;7.00;99.90;;;;;;5035856;28;20223;-79
2021/10/09 05:01:42;;;;;;;16.95;7.53;;;7.00;99.90;;;;;;5034544;28;20491;-80
2021/10/09 05:04:08;;;;;;;11.57;7.40;;;7.10;99.90;;;;;;5033374;28;20216;-79
2021/10/09 05:06:36;;;;;;;13.87;7.57;;;6.70;99.90;;;;;;5033819;28;20190;-79
2021/10/09 05:09:03;;;;;;;13.07;7.60;;;6.70;99.90;;;;;;5033711;28;20169;-80
2021/10/09 05:11:28;;;;;;;15.80;8.30;;;6.80;99.90;;;;;;5035865;28;20323;-79
2021/10/09 05:13:55;;;;;;;13.93;8.03;;;6.90;99.90;;;;;;5035379;28;20720;-79
2021/10/09 05:16:20;;;;;;;11.82;7.10;;;7.10;99.90;;;;;;5036181;28;20193;-79
2021/10/09 05:18:46;;;;;;;14.43;8.53;;;6.70;99.90;;;;;;5035011;28;20542;-79
2021/10/09 05:21:11;;;;;;;15.70;7.13;;;6.40;99.90;;;;;;5034848;28;20173;-80
2021/10/09 05:23:37;;;;;;;16.13;8.53;;;6.10;99.90;;;;;;5033179;28;20511;-79
2021/10/09 05:26:04;;;;;;;19.65;7.85;;;6.10;99.90;;;;;;5035687;28;20209;-80
2021/10/09 05:28:41;;;;;;;17.63;7.97;;;6.30;99.90;;;;;;5034600;28;20169;-80
2021/10/09 05:31:09;;;;;;;14.48;8.43;;;6.70;99.90;;;;;;5034042;28;20165;-80
2021/10/09 05:36:01;;;;;;;13.67;8.03;;;6.80;99.90;;;;;;5034796;28;20701;-80
2021/10/09 05:38:26;;;;;;;15.33;8.63;;;6.80;99.90;;;;;;5034107;28;20546;-79
2021/10/09 05:40:55;;;;;;;15.60;7.40;;;6.70;99.90;;;;;;5032924;28;20327;-80
2021/10/09 05:43:20;;;;;;;15.52;8.63;;;6.80;99.90;;;;;;5032796;28;20195;-79
2021/10/09 05:45:46;;;;;;;14.43;7.10;;;6.80;99.90;;;;;;5035358;28;20209;-80
2021/10/09 05:48:11;;;;;;;13.57;7.97;;;7.10;99.90;;;;;;5036950;28;20359;-80
2021/10/09 05:50:53;;;;;;;16.40;8.07;;;7.10;99.90;;;;;;5036902;28;20178;-80
2021/10/09 07:00:44;;;;;;;13.82;8.40;;;8.00;99.90;;;;;;5039393;28;20249;-79
2021/10/09 07:03:09;;;;;;;13.27;7.87;;;8.00;99.90;;;;;;5041655;28;20181;-79
2021/10/09 07:05:40;;;;;;;15.40;8.07;;;7.70;99.90;;;;;;5048472;28;20205;-79
2021/10/09 07:08:09;;;;;;;16.05;8.10;;;7.90;99.90;;;;;;5036675;28;20235;-78
2021/10/09 07:10:42;;;;;;;15.80;8.90;;;8.00;99.90;;;;;;5036881;28;20162;-77
2021/10/09 07:13:09;;;;;;;15.75;8.95;;;7.70;99.90;;;;;;5037402;28;20165;-80
2021/10/09 07:15:37;;;;;;;19.42;8.00;;;7.80;99.90;;;;;;5036380;28;20228;-79
2021/10/09 07:18:04;;;;;;;16.13;7.55;;;7.90;99.90;;;;;;5037815;28;20185;-77
2021/10/09 07:20:30;;;;;;;22.50;8.40;;;8.10;99.90;;;;;;5037480;28;20181;-79
2021/10/09 07:22:55;;;;;;;18.20;8.43;;;8.20;99.90;;;;;;5037068;28;20216;-80
2021/10/09 07:25:22;;;;;;;11.10;7.00;;;8.00;99.90;;;;;;5035279;28;20204;-77
2021/10/09 07:27:47;;;;;;;11.60;7.53;;;8.10;99.90;;;;;;5036470;28;20568;-80
2021/10/09 07:30:13;;;;;;;16.10;8.47;;;8.40;99.90;;;;;;5036641;28;20181;-79
2021/10/09 07:32:44;;;;;;;15.32;8.27;;;8.60;99.90;;;;;;5037325;28;20263;-78
2021/10/09 07:35:16;;;;;;;14.68;9.02;;;8.50;99.90;;;;;;5043963;28;20184;-78
2021/10/09 07:37:42;;;;;;;13.25;7.40;;;8.50;99.90;;;;;;5035052;28;20181;-79
2021/10/09 07:40:09;;;;;;;13.73;7.30;;;8.60;99.90;;;;;;5036343;28;20268;-79
2021/10/09 07:42:34;;;;;;;12.98;7.18;;;8.70;99.90;;;;;;5035149;28;20428;-79
2021/10/09 07:45:00;;;;;;;11.37;7.30;;;8.50;99.90;;;;;;5036305;28;20205;-79
2021/10/09 07:47:25;;;;;;;13.20;7.83;;;8.70;99.90;;;;;;5034612;28;20651;-78
2021/10/09 07:49:51;;;;;;;11.57;6.70;;;8.90;99.90;;;;;;5036412;28;20206;-81
2021/10/09 07:52:17;;;;;;;12.53;7.37;;;8.90;99.90;;;;;;5036627;28;20166;-79
2021/10/09 07:54:43;;;;;;;18.10;7.05;;;8.80;99.90;;;;;;5036369;28;20181;-80
2021/10/09 07:57:12;;;;;;;14.87;7.50;;;8.90;99.90;;;;;;5036567;28;20339;-78
2021/10/09 07:59:37;;;;;;;16.20;7.47;;;8.70;99.90;;;;;;5018963;28;20181;-80
2021/10/09 08:02:05;;;;;;;12.87;6.57;;;8.90;99.90;;;;;;5035654;28;20173;-79
2021/10/09 08:04:30;;;;;;;10.73;7.10;;;9.10;99.90;;;;;;5034387;28;20197;-80
2021/10/09 08:06:56;;;;;;;12.30;7.00;;;9.00;99.90;;;;;;5035942;28;20182;-79
2021/10/09 08:09:24;;;;;;;11.13;6.68;;;9.20;99.90;;;;;;5035488;28;20174;-79
2021/10/09 08:11:50;;;;;;;11.27;6.05;;;9.30;99.90;;;;;;5018655;28;20595;-80
2021/10/09 08:14:15;;;;;;;13.20;7.13;;;9.30;99.90;;;;;;5036034;28;20190;-80
2021/10/09 08:16:41;;;;;;;14.00;7.53;;;9.50;99.90;;;;;;5036221;28;20189;-80
2021/10/09 08:19:07;;;;;;;11.77;6.83;;;9.50;99.90;;;;;;5035649;28;20177;-79
2021/10/09 08:21:38;;;;;;;13.70;7.20;;;9.60;99.90;;;;;;5035164;28;20184;-79
2021/10/09 08:24:12;;;;;;;15.50;6.47;;;9.80;99.90;;;;;;5034209;28;20200;-80
2021/10/09 08:27:02;;;;;;;11.27;5.90;;;9.80;99.90;;;;;;5018861;28;20196;-78
2021/10/09 08:40:23;;;;;;;12.90;7.18;;;10.40;99.90;;;;;;5036829;28;20235;-79
2021/10/09 08:42:49;;;;;;;10.27;6.00;;;10.50;99.90;;;;;;5035827;28;20193;-80
2021/10/09 08:45:15;;;;;;;11.60;6.97;;;10.60;99.90;;;;;;5033227;28;20560;-79
2021/10/09 08:47:43;;;;;;;15.40;6.63;;;10.60;99.90;;;;;;5035137;28;20180;-79
2021/10/09 08:50:11;;;;;;;11.00;5.25;;;10.70;99.90;;;;;;5034969;28;20217;-79
2021/10/09 08:52:37;;;;;;;10.18;5.53;;;10.80;99.90;;;;;;5035357;28;20197;-81
2021/10/09 08:55:20;;;;;;;8.48;5.22;;;10.80;99.90;;;;;;5034108;28;20252;-78
2021/10/09 08:57:47;;;;;;;8.27;4.90;;;10.90;99.90;;;;;;5035543;28;20187;-79
2021/10/09 09:00:13;;;;;;;11.52;5.55;;;11.00;99.90;;;;;;5035212;28;20227;-80
2021/10/09 09:03:03;;;;;;;9.15;5.75;;;11.00;99.90;;;;;;5034401;28;20256;-78
2021/10/09 09:08:22;;;;;;;9.43;5.43;;;11.00;99.90;;;;;;5033481;28;20220;-79
2021/10/09 09:31:22;;;;;;;8.48;4.20;;;11.60;99.90;;;;;;5011417;28;20195;-80
2021/10/09 09:37:14;;;;;;;6.85;4.70;;;11.70;99.90;;;;;;5011396;28;20194;-78
2021/10/09 09:39:43;;;;;;;6.97;5.00;;;11.80;99.90;;;;;;5030674;28;20181;-78
2021/10/09 09:42:10;;;;;;;9.23;4.88;;;11.80;99.90;;;;;;5031821;28;20276;-77
2021/10/09 09:44:50;;;;;;;10.15;4.93;;;11.80;99.90;;;;;;5032640;28;20200;-77
2021/10/09 09:47:16;;;;;;;8.93;4.35;;;11.90;99.90;;;;;;5032868;28;20195;-78
2021/10/09 09:49:42;;;;;;;7.33;4.50;;;12.00;99.90;;;;;;5033944;28;20178;-79
2021/10/09 09:52:07;;;;;;;9.00;4.67;;;12.00;99.90;;;;;;5033959;28;20165;-79
2021/10/09 09:54:33;;;;;;;7.33;4.73;;;11.90;99.90;;;;;;5016597;28;20181;-78
2021/10/09 09:57:02;;;;;;;9.77;5.87;;;11.90;99.90;;;;;;5033386;28;20550;-80
2021/10/09 09:59:32;;;;;;;6.20;4.30;;;12.00;99.90;;;;;;5033053;28;20184;-77
2021/10/09 10:02:05;;;;;;;10.65;6.00;;;12.10;99.90;;;;;;5033506;28;20221;-80
2021/10/09 10:04:32;;;;;;;9.70;4.88;;;12.20;99.90;;;;;;5016964;28;20205;-78
2021/10/09 10:07:02;;;;;;;6.93;4.00;;;12.20;99.90;;;;;;5033507;28;20668;-79
2021/10/09 10:09:29;;;;;;;7.03;4.72;;;12.30;99.90;;;;;;5034138;28;20208;-79
2021/10/09 10:12:01;;;;;;;7.50;4.45;;;12.30;99.90;;;;;;5034647;28;20252;-80
2021/10/09 10:14:28;;;;;;;11.75;5.22;;;12.40;99.90;;;;;;5016261;28;20280;-78
2021/10/09 10:16:55;;;;;;;6.40;3.85;;;12.40;99.90;;;;;;5034281;28;20189;-80
2021/10/09 10:19:50;;;;;;;9.70;4.53;;;12.50;99.90;;;;;;5033356;28;20177;-79
2021/10/09 10:22:34;;;;;;;8.43;4.35;;;12.50;99.90;;;;;;5034821;28;20173;-79
2021/10/09 10:25:00;;;;;;;6.45;4.68;;;12.60;99.90;;;;;;5033708;28;20208;-79
2021/10/09 10:27:42;;;;;;;6.90;4.57;;;12.60;99.90;;;;;;5033957;28;20189;-79
2021/10/09 10:30:14;;;;;;;7.50;4.30;;;12.70;99.90;;;;;;5033093;28;20169;-79
2021/10/09 10:32:40;;;;;;;6.22;3.83;;;12.70;99.90;;;;;;5036061;28;20181;-79
2021/10/09 10:35:28;;;;;;;8.07;4.15;;;12.70;99.90;;;;;;5037744;28;20549;-79
2021/10/09 10:37:56;;;;;;;9.07;4.90;;;12.60;99.90;;;;;;5036510;28;20209;-79
2021/10/09 10:40:50;;;;;;;8.23;5.13;;;12.70;99.90;;;;;;5037777;28;20166;-79
2021/10/09 10:46:03;;;;;;;8.52;4.53;;;12.90;99.90;;;;;;5037437;28;20205;-79
2021/10/09 10:48:46;;;;;;;6.10;3.80;;;12.90;99.90;;;;;;5037735;28;20165;-79
2021/10/09 10:51:41;;;;;;;6.20;4.25;;;13.00;99.90;;;;;;5036488;28;20682;-78
2021/10/09 10:57:01;;;;;;;4.65;3.10;;;13.00;99.90;;;;;;5037707;28;20669;-80
2021/10/09 10:59:57;;;;;;;6.45;4.10;;;13.00;99.90;;;;;;5038596;28;20192;-77
2021/10/09 11:02:29;;;;;;;7.30;4.20;;;13.10;99.90;;;;;;5036596;28;20235;-80
2021/10/09 11:05:04;;;;;;;6.13;3.83;;;13.20;99.90;;;;;;5038406;28;20201;-78
2021/10/09 11:07:31;;;;;;;4.25;2.92;;;13.30;99.90;;;;;;5037408;28;20209;-80
2021/10/09 11:10:08;;;;;;;5.57;4.05;;;13.30;99.90;;;;;;5042551;28;20192;-80
2021/10/09 11:12:37;;;;;;;6.95;3.58;;;13.40;99.90;;;;;;5044195;28;20172;-79
2021/10/09 11:15:22;;;;;;;8.30;4.15;;;13.20;99.90;;;;;;5040547;28;20208;-79
2021/10/09 11:18:00;;;;;;;6.28;3.95;;;13.30;99.90;;;;;;5037394;28;20209;-80
2021/10/09 11:20:30;;;;;;;8.27;3.83;;;13.40;99.90;;;;;;5036658;28;20254;-80
2021/10/09 11:23:02;;;;;;;9.70;4.75;;;13.50;99.90;;;;;;5036585;28;20244;-79
2021/10/09 11:25:35;;;;;;;4.88;3.50;;;13.40;99.90;;;;;;5038018;28;20213;-79
2021/10/09 11:28:24;;;;;;;4.65;3.65;;;13.30;99.90;;;;;;5040125;28;20220;-78
2021/10/09 11:30:50;;;;;;;6.72;3.78;;;13.40;99.90;;;;;;5039056;28;20178;-78
2021/10/09 11:33:22;;;;;;;5.53;3.73;;;13.40;99.90;;;;;;5039691;28;20175;-79
2021/10/09 11:35:48;;;;;;;5.90;3.88;;;13.50;99.90;;;;;;5039251;28;20428;-79
2021/10/09 11:38:28;;;;;;;5.43;3.63;;;13.60;99.90;;;;;;5021251;28;20231;-81
2021/10/09 11:41:09;;;;;;;5.82;3.10;;;13.70;99.40;;;;;;5037298;28;20415;-79
2021/10/09 11:46:12;;;;;;;6.47;4.25;;;13.90;98.90;;;;;;5036658;28;20201;-79
2021/10/09 11:56:45;;;;;;;3.80;2.80;;;13.80;96.10;;;;;;5036193;28;20565;-79
2021/10/09 11:59:11;;;;;;;4.38;2.78;;;13.90;96.00;;;;;;5034229;28;20256;-79
2021/10/09 12:01:47;;;;;;;3.85;2.80;;;13.90;95.90;;;;;;5018702;28;20644;-79
2021/10/09 12:04:23;;;;;;;7.35;3.30;;;13.90;95.20;;;;;;5036155;28;20620;-79
2021/10/09 12:06:53;;;;;;;5.55;2.60;;;13.80;94.90;;;;;;5034076;28;20191;-79
2021/10/09 12:09:46;;;;;;;6.03;3.85;;;13.90;95.00;;;;;;5036852;28;20189;-79
2021/10/09 12:12:25;;;;;;;3.65;2.70;;;13.90;95.00;;;;;;5035520;28;20177;-80
2021/10/09 12:14:52;;;;;;;4.78;3.35;;;14.00;94.30;;;;;;5036360;28;20623;-80
2021/10/09 12:17:20;;;;;;;5.07;3.13;;;14.00;93.30;;;;;;5036491;28;20390;-80
2021/10/09 12:20:00;;;;;;;5.00;3.50;;;14.20;93.60;;;;;;5036491;28;20418;-80
2021/10/09 12:22:26;;;;;;;3.17;2.60;;;14.20;92.90;;;;;;5034849;28;20485;-79
2021/10/09 12:24:54;;;;;;;4.37;2.77;;;14.30;91.40;;;;;;5034596;28;20461;-79
2021/10/09 12:27:22;;;;;;;3.30;2.78;;;14.20;91.30;;;;;;5035149;28;20426;-79
2021/10/09 12:30:08;;;;;;;11.00;3.80;;;14.20;91.60;;;;;;5035008;28;20170;-79
2021/10/09 12:32:43;;;;;;;5.50;3.40;;;14.30;91.40;;;;;;5036553;28;20176;-79
2021/10/09 12:35:11;;;;;;;3.58;2.90;;;14.30;92.10;;;;;;5034655;28;20470;-78
2021/10/09 12:37:39;;;;;;;5.27;3.17;;;14.30;92.60;;;;;;5033398;28;20284;-79
2021/10/09 12:40:25;;;;;;;3.70;2.90;;;14.40;92.00;;;;;;5034805;28;20427;-80
2021/10/09 12:42:57;;;;;;;3.22;2.75;;;14.40;91.80;;;;;;5017884;28;20446;-80
2021/10/09 12:45:24;;;;;;;7.13;3.20;;;14.30;91.60;;;;;;5035567;28;20317;-79
2021/10/09 12:47:51;;;;;;;6.40;4.53;;;14.40;92.10;;;;;;5034730;28;20506;-79
2021/10/09 12:50:18;;;;;;;6.90;3.90;;;14.40;92.30;;;;;;5035199;28;20408;-80
2021/10/09 12:52:45;;;;;;;5.03;3.80;;;14.50;93.20;;;;;;5020238;28;20504;-80
2021/10/09 12:55:13;;;;;;;5.27;3.63;;;14.50;92.50;;;;;;5035018;28;20464;-80
2021/10/09 12:57:49;;;;;;;4.10;3.00;;;14.50;92.00;;;;;;5034991;28;20942;-80
2021/10/09 13:00:15;;;;;;;6.77;3.63;;;14.50;91.90;;;;;;5033767;28;20417;-80
2021/10/09 13:02:40;;;;;;;5.47;3.60;;;14.50;91.40;;;;;;5034937;28;20423;-80
2021/10/09 13:05:06;;;;;;;3.20;2.63;;;14.40;91.00;;;;;;5034091;28;20461;-80
2021/10/09 13:07:34;;;;;;;4.83;3.23;;;14.50;90.80;;;;;;5034897;28;20244;-80
2021/10/09 13:10:00;;;;;;;3.03;2.40;;;14.40;90.70;;;;;;5033893;28;20248;-80
2021/10/09 13:12:25;;;;;;;10.73;2.87;;;14.40;90.60;;;;;;5035348;28;20497;-79
2021/10/09 13:14:51;;;;;;;4.13;2.67;;;14.50;91.00;;;;;;5033854;28;20242;-80
2021/10/09 13:17:19;;;;;;;5.60;3.40;;;14.50;90.90;;;;;;5034709;28;20536;-80
2021/10/09 13:19:45;;;;;;;4.30;3.07;;;14.50;89.90;;;;;;5033613;28;20202;-80
2021/10/09 13:22:10;;;;;;;5.53;2.43;;;14.50;88.80;;;;;;5017204;28;20421;-80
2021/10/09 13:24:36;;;;;;;3.37;2.83;;;14.40;90.30;;;;;;5033451;28;20229;-80
2021/10/09 13:27:02;;;;;;;6.70;2.30;;;14.50;90.10;;;;;;5000464;28;20549;-79
2021/10/09 13:29:30;;;;;;;4.27;2.93;;;14.50;90.10;;;;;;5034755;28;20654;-79
2021/10/09 13:31:56;;;;;;;4.53;3.08;;;14.60;90.00;;;;;;5034918;28;20567;-79
2021/10/09 13:34:22;;;;;;;3.20;2.40;;;14.50;89.40;;;;;;5033439;28;20187;-78
2021/10/09 13:36:48;;;;;;;5.50;3.20;;;14.50;89.40;;;;;;5033583;28;20521;-80
2021/10/09 13:39:13;;;;;;;6.97;2.67;;;14.50;90.00;;;;;;5035224;28;20180;-79
2021/10/09 13:41:40;;;;;;;4.50;2.40;;;14.50;90.20;;;;;;5019726;28;20176;-78
2021/10/09 13:44:06;;;;;;;5.85;3.03;;;14.60;90.00;;;;;;5032695;28;20174;-79
2021/10/09 13:46:37;;;;;;;3.10;2.60;;;14.60;89.60;;;;;;5032735;28;20314;-79
2021/10/09 13:49:06;;;;;;;7.50;3.27;;;14.50;88.50;;;;;;5033748;28;20746;-80
2021/10/09 13:51:33;;;;;;;5.57;2.67;;;14.60;87.20;;;;;;5052101;28;20492;-79
2021/10/09 13:53:59;;;;;;;3.47;2.60;;;14.60;85.90;;;;;;5035209;28;20500;-79
2021/10/09 13:56:24;;;;;;;4.20;3.00;;;14.70;84.60;;;;;;5035783;28;20456;-79
2021/10/09 13:58:50;;;;;;;3.30;2.57;;;14.60;84.20;;;;;;5034175;28;20633;-79
2021/10/09 14:01:15;;;;;;;4.70;2.20;;;14.60;85.40;;;;;;5035459;28;20170;-79
2021/10/09 14:03:42;;;;;;;7.53;3.10;;;14.60;85.30;;;;;;5034189;28;20936;-80
2021/10/09 14:06:08;;;;;;;7.23;3.00;;;14.60;84.90;;;;;;5019139;28;20695;-79
2021/10/09 14:08:33;;;;;;;4.10;2.23;;;14.60;84.40;;;;;;5038823;28;20505;-78
2021/10/09 14:11:00;;;;;;;3.67;2.40;;;14.60;84.40;;;;;;5038690;28;20187;-79
2021/10/09 14:13:27;;;;;;;5.50;3.30;;;14.60;84.30;;;;;;5038954;28;20231;-79
2021/10/09 14:15:53;;;;;;;4.07;3.03;;;14.60;85.50;;;;;;5037792;28;20527;-79
2021/10/09 14:18:22;;;;;;;3.00;2.70;;;14.50;86.20;;;;;;5038567;28;20406;-80
2021/10/09 14:20:53;;;;;;;5.87;2.90;;;14.50;86.10;;;;;;5039151;28;20188;-79
2021/10/09 14:23:27;;;;;;;3.80;2.67;;;14.50;84.40;;;;;;5038297;28;20424;-80
2021/10/09 14:25:53;;;;;;;4.13;2.40;;;14.50;84.00;;;;;;5018887;28;20475;-77
2021/10/09 14:28:19;;;;;;;4.53;2.73;;;14.40;84.20;;;;;;5037737;28;20174;-80
2021/10/09 14:30:49;;;;;;;5.90;2.97;;;14.40;83.80;;;;;;5038019;28;20425;-82
2021/10/09 14:33:16;;;;;;;3.43;2.60;;;14.40;84.70;;;;;;5037556;28;20422;-80
2021/10/09 14:35:41;;;;;;;4.17;3.17;;;14.40;84.60;;;;;;5038331;28;20444;-82
2021/10/09 14:38:07;;;;;;;5.70;3.40;;;14.40;86.60;;;;;;5022479;28;20572;-80
2021/10/09 14:40:33;;;;;;;2.83;2.47;;;14.40;86.50;;;;;;5021674;28;20264;-80
2021/10/09 14:42:59;;;;;;;7.10;3.30;;;14.40;86.10;;;;;;5038931;28;20206;-81
2021/10/09 14:45:26;;;;;;;5.87;3.27;;;14.40;87.90;;;;;;5038770;28;20207;-81
2021/10/09 14:48:00;;;;;;;3.90;2.93;;;14.50;86.50;;;;;;5022307;28;20509;-80
2021/10/09 14:50:57;;;;;;;4.53;2.77;;;14.50;87.00;;;;;;5039468;28;20409;-80
2021/10/09 14:56:12;;;;;;;5.10;2.67;;;14.40;86.80;;;;;;5038080;28;20438;-80
2021/10/09 15:20:26;;;;;;;3.53;2.80;;;14.10;90.60;;;;;;5037906;28;20179;-78
2021/10/09 15:22:55;;;;;;;4.87;3.13;;;14.20;90.60;;;;;;5037321;28;20419;-79
2021/10/09 15:25:20;;;;;;;4.00;2.67;;;14.20;90.70;;;;;;5039255;28;20212;-78
2021/10/09 15:27:46;;;;;;;5.53;3.40;;;14.10;90.80;;;;;;5037239;28;20504;-79
2021/10/09 15:30:11;;;;;;;6.40;3.40;;;14.10;91.30;;;;;;5037639;28;20180;-79
2021/10/09 15:32:38;;;;;;;6.23;2.90;;;14.00;91.60;;;;;;5037467;28;20170;-79